sensor_id;sensor_type;location;lat;lon;timestamp;pressure;altitude;pressure_sealevel;temperature;humidity
70158;BME280;57524;48.312;7.938;2022-07-12T00:02:14;99849.94;;;18.14;58.08
70158;BME280;57524;48.312;7.938;2022-07-12T00:04:41;99862.22;;;18.18;58.92
70158;BME280;57524;48.312;7.938;2022-07-12T00:07:08;99856.72;;;18.21;58.93
70158;BME280;57524;48.312;7.938;2022-07-12T00:09:34;99849.00;;;18.15;58.65
70158;BME280;57524;48.312;7.938;2022-07-12T00:12:01;99857.00;;;18.15;58.62
70158;BME280;57524;48.312;7.938;2022-07-12T00:14:28;99857.41;;;18.06;58.69
70158;BME280;57524;48.312;7.938;2022-07-12T00:16:56;99857.28;;;18.09;58.60
70158;BME280;57524;48.312;7.938;2022-07-12T00:19:22;99856.41;;;18.08;58.65
70158;BME280;57524;48.312;7.938;2022-07-12T00:21:49;99863.72;;;18.05;59.22
70158;BME280;57524;48.312;7.938;2022-07-12T00:24:16;99868.09;;;18.06;58.44
70158;BME280;57524;48.312;7.938;2022-07-12T00:26:42;99864.47;;;18.07;59.19
70158;BME280;57524;48.312;7.938;2022-07-12T00:29:09;99867.09;;;18.08;58.39
70158;BME280;57524;48.312;7.938;2022-07-12T00:31:36;99865.44;;;18.06;58.98
70158;BME280;57524;48.312;7.938;2022-07-12T00:34:04;99862.91;;;18.03;59.26
70158;BME280;57524;48.312;7.938;2022-07-12T00:36:31;99864.09;;;17.96;59.69
70158;BME280;57524;48.312;7.938;2022-07-12T00:38:57;99857.09;;;17.93;59.12
70158;BME280;57524;48.312;7.938;2022-07-12T00:41:24;99857.41;;;17.87;59.16
70158;BME280;57524;48.312;7.938;2022-07-12T00:43:51;99856.66;;;17.83;58.95
70158;BME280;57524;48.312;7.938;2022-07-12T00:46:21;99861.22;;;17.80;60.07
70158;BME280;57524;48.312;7.938;2022-07-12T00:48:48;99867.31;;;17.83;58.95
70158;BME280;57524;48.312;7.938;2022-07-12T00:51:17;99856.66;;;17.83;58.84
70158;BME280;57524;48.312;7.938;2022-07-12T00:53:44;99850.50;;;17.81;59.14
70158;BME280;57524;48.312;7.938;2022-07-12T00:56:12;99857.03;;;17.74;59.42
70158;BME280;57524;48.312;7.938;2022-07-12T00:58:39;99856.28;;;17.71;59.85
70158;BME280;57524;48.312;7.938;2022-07-12T01:01:06;99857.13;;;17.71;59.46
70158;BME280;57524;48.312;7.938;2022-07-12T01:03:33;99853.56;;;17.72;59.37
70158;BME280;57524;48.312;7.938;2022-07-12T01:06:00;99861.31;;;17.58;59.89
70158;BME280;57524;48.312;7.938;2022-07-12T01:08:30;99857.94;;;17.53;59.68
70158;BME280;57524;48.312;7.938;2022-07-12T01:10:57;99855.00;;;17.38;60.81
70158;BME280;57524;48.312;7.938;2022-07-12T01:13:24;99858.50;;;17.40;60.45
70158;BME280;57524;48.312;7.938;2022-07-12T01:15:52;99854.25;;;17.35;60.63
70158;BME280;57524;48.312;7.938;2022-07-12T01:18:19;99857.13;;;17.30;60.53
70158;BME280;57524;48.312;7.938;2022-07-12T01:20:46;99846.34;;;17.33;60.72
70158;BME280;57524;48.312;7.938;2022-07-12T01:23:15;99856.06;;;17.34;60.54
70158;BME280;57524;48.312;7.938;2022-07-12T01:25:42;99856.03;;;17.36;60.37
70158;BME280;57524;48.312;7.938;2022-07-12T01:28:09;99858.59;;;17.37;60.37
70158;BME280;57524;48.312;7.938;2022-07-12T01:30:36;99859.22;;;17.44;60.51
70158;BME280;57524;48.312;7.938;2022-07-12T01:33:04;99856.75;;;17.39;60.03
70158;BME280;57524;48.312;7.938;2022-07-12T01:35:31;99860.22;;;17.41;59.93
70158;BME280;57524;48.312;7.938;2022-07-12T01:37:59;99853.16;;;17.40;60.90
70158;BME280;57524;48.312;7.938;2022-07-12T01:40:27;99850.50;;;17.40;60.24
70158;BME280;57524;48.312;7.938;2022-07-12T01:42:54;99847.69;;;17.43;60.20
70158;BME280;57524;48.312;7.938;2022-07-12T01:45:20;99855.81;;;17.40;60.51
70158;BME280;57524;48.312;7.938;2022-07-12T01:47:47;99856.47;;;17.45;60.26
70158;BME280;57524;48.312;7.938;2022-07-12T01:50:14;99861.81;;;17.45;60.44
70158;BME280;57524;48.312;7.938;2022-07-12T01:52:41;99857.44;;;17.44;60.45
70158;BME280;57524;48.312;7.938;2022-07-12T01:55:09;99853.25;;;17.37;60.24
70158;BME280;57524;48.312;7.938;2022-07-12T01:57:38;99853.56;;;17.31;60.16
70158;BME280;57524;48.312;7.938;2022-07-12T02:00:06;99858.75;;;17.34;60.46
70158;BME280;57524;48.312;7.938;2022-07-12T02:02:33;99853.66;;;17.28;60.41
70158;BME280;57524;48.312;7.938;2022-07-12T02:05:01;99864.59;;;17.22;60.84
70158;BME280;57524;48.312;7.938;2022-07-12T02:07:28;99864.84;;;17.16;60.72
70158;BME280;57524;48.312;7.938;2022-07-12T02:09:55;99856.84;;;17.16;60.75
70158;BME280;57524;48.312;7.938;2022-07-12T02:12:21;99866.69;;;17.14;60.36
70158;BME280;57524;48.312;7.938;2022-07-12T02:14:50;99862.63;;;17.05;60.85
70158;BME280;57524;48.312;7.938;2022-07-12T02:17:17;99862.81;;;17.00;61.21
70158;BME280;57524;48.312;7.938;2022-07-12T02:19:44;99867.94;;;17.05;61.04
70158;BME280;57524;48.312;7.938;2022-07-12T02:22:10;99866.69;;;17.14;60.72
70158;BME280;57524;48.312;7.938;2022-07-12T02:24:37;99864.84;;;17.16;60.99
70158;BME280;57524;48.312;7.938;2022-07-12T02:27:04;99866.56;;;17.17;60.41
70158;BME280;57524;48.312;7.938;2022-07-12T02:29:31;99867.38;;;17.19;60.96
70158;BME280;57524;48.312;7.938;2022-07-12T02:31:59;99865.47;;;17.22;60.46
70158;BME280;57524;48.312;7.938;2022-07-12T02:34:26;99870.69;;;17.24;60.45
70158;BME280;57524;48.312;7.938;2022-07-12T02:36:52;99867.25;;;17.22;60.24
70158;BME280;57524;48.312;7.938;2022-07-12T02:39:19;99866.56;;;17.17;60.57
70158;BME280;57524;48.312;7.938;2022-07-12T02:41:46;99862.38;;;17.11;61.11
70158;BME280;57524;48.312;7.938;2022-07-12T02:44:12;99859.75;;;17.10;60.79
70158;BME280;57524;48.312;7.938;2022-07-12T02:46:39;99857.22;;;17.07;61.21
70158;BME280;57524;48.312;7.938;2022-07-12T02:49:07;99863.72;;;16.99;61.16
70158;BME280;57524;48.312;7.938;2022-07-12T02:51:34;99858.38;;;16.99;61.61
70158;BME280;57524;48.312;7.938;2022-07-12T02:54:00;99874.38;;;16.99;61.56
70158;BME280;57524;48.312;7.938;2022-07-12T02:56:27;99878.94;;;16.97;61.56
70158;BME280;57524;48.312;7.938;2022-07-12T02:58:54;99876.25;;;16.97;61.64
70158;BME280;57524;48.312;7.938;2022-07-12T03:01:20;99879.66;;;17.01;61.10
70158;BME280;57524;48.312;7.938;2022-07-12T03:03:47;99888.50;;;17.01;61.58
70158;BME280;57524;48.312;7.938;2022-07-12T03:06:15;99876.13;;;17.00;61.54
70158;BME280;57524;48.312;7.938;2022-07-12T03:08:42;99876.81;;;17.06;61.48
70158;BME280;57524;48.312;7.938;2022-07-12T03:11:09;99872.41;;;17.04;61.46
70158;BME280;57524;48.312;7.938;2022-07-12T03:13:35;99877.50;;;17.11;60.96
70158;BME280;57524;48.312;7.938;2022-07-12T03:16:02;99859.53;;;16.94;61.10
70158;BME280;57524;48.312;7.938;2022-07-12T03:18:29;99865.84;;;16.91;61.37
70158;BME280;57524;48.312;7.938;2022-07-12T03:20:56;99871.19;;;16.91;61.47
70158;BME280;57524;48.312;7.938;2022-07-12T03:23:24;99876.06;;;16.80;61.95
70158;BME280;57524;48.312;7.938;2022-07-12T03:25:51;99866.41;;;16.76;61.95
70158;BME280;57524;48.312;7.938;2022-07-12T03:28:18;99875.47;;;16.72;62.01
70158;BME280;57524;48.312;7.938;2022-07-12T03:30:44;99878.16;;;16.70;62.15
70158;BME280;57524;48.312;7.938;2022-07-12T03:33:11;99873.72;;;16.71;62.01
70158;BME280;57524;48.312;7.938;2022-07-12T03:35:38;99868.63;;;16.65;61.82
70158;BME280;57524;48.312;7.938;2022-07-12T03:38:05;99877.94;;;16.76;62.13
70158;BME280;57524;48.312;7.938;2022-07-12T03:40:33;99883.25;;;16.76;61.96
70158;BME280;57524;48.312;7.938;2022-07-12T03:43:00;99885.88;;;16.78;62.09
70158;BME280;57524;48.312;7.938;2022-07-12T03:45:27;99884.13;;;16.77;61.84
70158;BME280;57524;48.312;7.938;2022-07-12T03:47:54;99886.09;;;16.72;62.45
70158;BME280;57524;48.312;7.938;2022-07-12T03:50:20;99893.28;;;16.70;62.21
70158;BME280;57524;48.312;7.938;2022-07-12T03:52:47;99897.00;;;16.66;62.34
70158;BME280;57524;48.312;7.938;2022-07-12T03:55:14;99893.78;;;16.57;62.21
70158;BME280;57524;48.312;7.938;2022-07-12T03:57:42;99897.34;;;16.56;62.37
70158;BME280;57524;48.312;7.938;2022-07-12T04:00:10;99897.47;;;16.53;62.45
70158;BME280;57524;48.312;7.938;2022-07-12T04:02:37;99904.44;;;16.57;62.12
70158;BME280;57524;48.312;7.938;2022-07-12T04:05:06;99899.09;;;16.57;62.42
70158;BME280;57524;48.312;7.938;2022-07-12T04:07:33;99901.19;;;16.49;62.30
70158;BME280;57524;48.312;7.938;2022-07-12T04:10:00;99906.50;;;16.49;62.31
70158;BME280;57524;48.312;7.938;2022-07-12T04:12:27;99901.31;;;16.46;62.81
70158;BME280;57524;48.312;7.938;2022-07-12T04:14:55;99901.41;;;16.43;62.88
70158;BME280;57524;48.312;7.938;2022-07-12T04:17:22;99901.31;;;16.46;62.96
70158;BME280;57524;48.312;7.938;2022-07-12T04:19:48;99899.81;;;16.39;62.62
70158;BME280;57524;48.312;7.938;2022-07-12T04:22:15;99892.94;;;16.32;62.81
70158;BME280;57524;48.312;7.938;2022-07-12T04:24:42;99908.47;;;16.44;62.83
70158;BME280;57524;48.312;7.938;2022-07-12T04:27:08;99912.31;;;16.37;63.02
70158;BME280;57524;48.312;7.938;2022-07-12T04:29:35;99922.94;;;16.37;62.97
70158;BME280;57524;48.312;7.938;2022-07-12T04:32:04;99917.28;;;16.46;62.87
70158;BME280;57524;48.312;7.938;2022-07-12T04:34:30;99915.44;;;16.48;62.69
70158;BME280;57524;48.312;7.938;2022-07-12T04:36:57;99909.34;;;16.45;62.76
70158;BME280;57524;48.312;7.938;2022-07-12T04:39:24;99923.00;;;16.35;62.93
70158;BME280;57524;48.312;7.938;2022-07-12T04:41:50;99921.19;;;16.36;62.91
70158;BME280;57524;48.312;7.938;2022-07-12T04:44:17;99929.81;;;16.42;62.98
70158;BME280;57524;48.312;7.938;2022-07-12T04:46:44;99927.16;;;16.42;62.76
70158;BME280;57524;48.312;7.938;2022-07-12T04:49:11;99927.09;;;16.44;62.57
70158;BME280;57524;48.312;7.938;2022-07-12T04:51:38;99921.56;;;16.50;62.60
70158;BME280;57524;48.312;7.938;2022-07-12T04:54:05;99920.66;;;16.50;62.60
70158;BME280;57524;48.312;7.938;2022-07-12T04:56:32;99922.69;;;16.43;62.93
70158;BME280;57524;48.312;7.938;2022-07-12T04:58:58;99923.75;;;16.39;63.09
70158;BME280;57524;48.312;7.938;2022-07-12T05:01:25;99928.28;;;16.37;63.18
70158;BME280;57524;48.312;7.938;2022-07-12T05:03:52;99926.50;;;16.36;63.24
70158;BME280;57524;48.312;7.938;2022-07-12T05:06:20;99930.00;;;16.38;63.26
70158;BME280;57524;48.312;7.938;2022-07-12T05:08:48;99935.91;;;16.46;62.95
70158;BME280;57524;48.312;7.938;2022-07-12T05:11:14;99931.16;;;16.54;62.81
70158;BME280;57524;48.312;7.938;2022-07-12T05:13:41;99926.34;;;16.64;62.44
70158;BME280;57524;48.312;7.938;2022-07-12T05:16:08;99926.88;;;16.74;62.17
70158;BME280;57524;48.312;7.938;2022-07-12T05:18:35;99924.88;;;16.79;62.36
70158;BME280;57524;48.312;7.938;2022-07-12T05:21:02;99920.41;;;16.81;62.79
70158;BME280;57524;48.312;7.938;2022-07-12T05:23:30;99931.00;;;16.82;63.21
70158;BME280;57524;48.312;7.938;2022-07-12T05:25:57;99924.69;;;16.85;62.43
70158;BME280;57524;48.312;7.938;2022-07-12T05:28:23;99924.22;;;16.97;62.48
70158;BME280;57524;48.312;7.938;2022-07-12T05:30:50;99927.31;;;17.09;62.68
70158;BME280;57524;48.312;7.938;2022-07-12T05:33:17;99921.63;;;17.18;61.98
70158;BME280;57524;48.312;7.938;2022-07-12T05:35:43;99924.81;;;17.26;61.42
70158;BME280;57524;48.312;7.938;2022-07-12T05:38:10;99921.84;;;17.34;61.97
70158;BME280;57524;48.312;7.938;2022-07-12T05:40:38;99933.00;;;17.43;61.09
70158;BME280;57524;48.312;7.938;2022-07-12T05:43:04;99922.09;;;17.50;61.13
70158;BME280;57524;48.312;7.938;2022-07-12T05:45:31;99923.56;;;17.57;60.70
70158;BME280;57524;48.312;7.938;2022-07-12T05:47:58;99930.50;;;17.61;60.75
70158;BME280;57524;48.312;7.938;2022-07-12T05:50:24;99930.31;;;17.65;60.24
70158;BME280;57524;48.312;7.938;2022-07-12T05:52:51;99930.97;;;17.71;60.99
70158;BME280;57524;48.312;7.938;2022-07-12T05:55:35;99930.56;;;17.80;60.64
70158;BME280;57524;48.312;7.938;2022-07-12T05:58:03;99938.41;;;17.84;60.20
70158;BME280;57524;48.312;7.938;2022-07-12T06:00:30;99937.28;;;17.90;60.28
70158;BME280;57524;48.312;7.938;2022-07-12T06:02:57;99935.28;;;17.95;60.20
70158;BME280;57524;48.312;7.938;2022-07-12T06:05:24;99934.16;;;18.01;60.85
70158;BME280;57524;48.312;7.938;2022-07-12T06:07:50;99933.88;;;18.07;60.72
70158;BME280;57524;48.312;7.938;2022-07-12T06:10:17;99930.00;;;18.14;60.09
70158;BME280;57524;48.312;7.938;2022-07-12T06:12:44;99936.97;;;18.18;60.22
70158;BME280;57524;48.312;7.938;2022-07-12T06:15:12;99936.53;;;18.27;60.65
70158;BME280;57524;48.312;7.938;2022-07-12T06:17:39;99939.72;;;18.36;60.50
70158;BME280;57524;48.312;7.938;2022-07-12T06:20:06;99951.84;;;18.43;59.94
70158;BME280;57524;48.312;7.938;2022-07-12T06:22:33;99948.78;;;18.52;60.06
70158;BME280;57524;48.312;7.938;2022-07-12T06:24:59;99946.69;;;18.59;60.11
70158;BME280;57524;48.312;7.938;2022-07-12T06:27:26;99950.88;;;18.64;59.60
70158;BME280;57524;48.312;7.938;2022-07-12T06:29:53;99947.78;;;18.74;59.72
70158;BME280;57524;48.312;7.938;2022-07-12T06:32:21;99949.13;;;18.84;58.52
70158;BME280;57524;48.312;7.938;2022-07-12T06:34:47;99941.59;;;18.92;58.06
70158;BME280;57524;48.312;7.938;2022-07-12T06:37:14;99951.06;;;18.99;58.09
70158;BME280;57524;48.312;7.938;2022-07-12T06:39:41;99941.66;;;19.09;57.73
70158;BME280;57524;48.312;7.938;2022-07-12T06:42:09;99946.56;;;19.19;57.00
70158;BME280;57524;48.312;7.938;2022-07-12T06:44:41;99954.00;;;19.31;56.79
70158;BME280;57524;48.312;7.938;2022-07-12T06:47:07;99959.81;;;19.39;55.96
70158;BME280;57524;48.312;7.938;2022-07-12T06:49:36;99948.69;;;19.48;55.70
70158;BME280;57524;48.312;7.938;2022-07-12T06:52:04;99953.41;;;19.61;55.37
70158;BME280;57524;48.312;7.938;2022-07-12T06:54:31;99961.78;;;19.72;54.78
70158;BME280;57524;48.312;7.938;2022-07-12T06:56:58;99966.53;;;19.84;54.09
70158;BME280;57524;48.312;7.938;2022-07-12T06:59:24;99962.44;;;19.94;53.75
70158;BME280;57524;48.312;7.938;2022-07-12T07:01:51;99963.69;;;20.05;54.14
70158;BME280;57524;48.312;7.938;2022-07-12T07:04:21;99959.44;;;20.18;53.96
70158;BME280;57524;48.312;7.938;2022-07-12T07:06:49;99963.28;;;20.30;54.47
70158;BME280;57524;48.312;7.938;2022-07-12T07:09:17;99961.75;;;20.42;53.07
70158;BME280;57524;48.312;7.938;2022-07-12T07:11:44;99970.06;;;20.53;53.22
70158;BME280;57524;48.312;7.938;2022-07-12T07:14:11;99960.78;;;20.60;52.33
70158;BME280;57524;48.312;7.938;2022-07-12T07:16:37;99966.59;;;20.68;51.49
70158;BME280;57524;48.312;7.938;2022-07-12T07:19:04;99963.59;;;20.74;51.33
70158;BME280;57524;48.312;7.938;2022-07-12T07:21:31;99958.78;;;20.81;51.76
70158;BME280;57524;48.312;7.938;2022-07-12T07:23:59;99961.00;;;20.89;51.05
70158;BME280;57524;48.312;7.938;2022-07-12T07:26:26;99969.31;;;21.00;51.00
70158;BME280;57524;48.312;7.938;2022-07-12T07:28:52;99973.22;;;21.10;51.36
70158;BME280;57524;48.312;7.938;2022-07-12T07:31:37;99967.50;;;21.16;50.49
70158;BME280;57524;48.312;7.938;2022-07-12T07:34:05;99970.81;;;21.22;50.58
70158;BME280;57524;48.312;7.938;2022-07-12T07:36:31;99967.78;;;21.28;50.16
70158;BME280;57524;48.312;7.938;2022-07-12T07:38:59;99966.38;;;21.36;50.19
70158;BME280;57524;48.312;7.938;2022-07-12T07:41:26;99973.69;;;21.50;49.78
70158;BME280;57524;48.312;7.938;2022-07-12T07:43:53;99978.50;;;21.59;49.68
70158;BME280;57524;48.312;7.938;2022-07-12T07:46:20;99974.31;;;21.70;49.19
70158;BME280;57524;48.312;7.938;2022-07-12T07:48:46;99973.78;;;21.79;48.98
70158;BME280;57524;48.312;7.938;2022-07-12T07:51:13;99981.28;;;21.88;48.31
70158;BME280;57524;48.312;7.938;2022-07-12T07:53:40;99976.34;;;21.96;48.56
70158;BME280;57524;48.312;7.938;2022-07-12T07:56:08;99972.31;;;22.04;48.59
70158;BME280;57524;48.312;7.938;2022-07-12T07:58:34;99964.09;;;22.07;47.82
70158;BME280;57524;48.312;7.938;2022-07-12T08:01:01;99973.41;;;22.15;48.06
70158;BME280;57524;48.312;7.938;2022-07-12T08:03:28;99972.13;;;22.23;48.50
70158;BME280;57524;48.312;7.938;2022-07-12T08:05:54;99974.31;;;22.30;47.64
70158;BME280;57524;48.312;7.938;2022-07-12T08:08:23;99979.31;;;22.36;48.19
70158;BME280;57524;48.312;7.938;2022-07-12T08:10:49;99970.69;;;22.46;47.29
70158;BME280;57524;48.312;7.938;2022-07-12T08:13:17;99976.47;;;22.54;46.97
70158;BME280;57524;48.312;7.938;2022-07-12T08:15:44;99961.69;;;22.61;47.04
70158;BME280;57524;48.312;7.938;2022-07-12T08:18:11;99968.59;;;22.65;46.35
70158;BME280;57524;48.312;7.938;2022-07-12T08:20:38;99966.56;;;22.69;46.16
70158;BME280;57524;48.312;7.938;2022-07-12T08:23:05;99968.00;;;22.74;46.22
70158;BME280;57524;48.312;7.938;2022-07-12T08:25:31;99969.94;;;22.72;45.80
70158;BME280;57524;48.312;7.938;2022-07-12T08:27:58;99962.84;;;22.71;46.06
70158;BME280;57524;48.312;7.938;2022-07-12T08:30:26;99965.88;;;22.79;45.52
70158;BME280;57524;48.312;7.938;2022-07-12T08:32:53;99963.75;;;22.84;45.30
70158;BME280;57524;48.312;7.938;2022-07-12T08:35:20;99964.75;;;22.83;45.53
70158;BME280;57524;48.312;7.938;2022-07-12T08:37:47;99969.53;;;22.93;44.61
70158;BME280;57524;48.312;7.938;2022-07-12T08:40:13;99964.56;;;23.01;44.36
70158;BME280;57524;48.312;7.938;2022-07-12T08:42:40;99970.50;;;23.06;46.98
70158;BME280;57524;48.312;7.938;2022-07-12T08:45:08;99964.19;;;23.07;47.55
70158;BME280;57524;48.312;7.938;2022-07-12T08:47:36;99964.72;;;22.98;47.44
70158;BME280;57524;48.312;7.938;2022-07-12T08:50:11;99971.38;;;23.07;48.69
70158;BME280;57524;48.312;7.938;2022-07-12T08:52:39;99974.13;;;23.19;48.09
70158;BME280;57524;48.312;7.938;2022-07-12T08:55:18;99982.75;;;23.24;46.62
70158;BME280;57524;48.312;7.938;2022-07-12T08:57:45;99982.38;;;23.31;47.00
70158;BME280;57524;48.312;7.938;2022-07-12T09:00:13;99971.38;;;23.34;46.62
70158;BME280;57524;48.312;7.938;2022-07-12T09:02:46;99974.44;;;23.42;47.13
70158;BME280;57524;48.312;7.938;2022-07-12T09:05:14;99972.13;;;23.50;46.96
70158;BME280;57524;48.312;7.938;2022-07-12T09:07:41;99971.06;;;23.53;46.06
70158;BME280;57524;48.312;7.938;2022-07-12T09:10:10;99976.13;;;23.57;47.01
70158;BME280;57524;48.312;7.938;2022-07-12T09:12:37;99972.69;;;23.55;46.56
70158;BME280;57524;48.312;7.938;2022-07-12T09:15:15;99980.00;;;23.53;47.13
70158;BME280;57524;48.312;7.938;2022-07-12T09:17:54;99974.28;;;23.58;46.35
70158;BME280;57524;48.312;7.938;2022-07-12T09:20:23;99976.13;;;23.57;46.55
70158;BME280;57524;48.312;7.938;2022-07-12T09:22:51;99975.16;;;23.58;46.13
70158;BME280;57524;48.312;7.938;2022-07-12T09:25:20;99970.91;;;23.69;46.24
70158;BME280;57524;48.312;7.938;2022-07-12T09:27:48;99971.06;;;23.80;45.88
70158;BME280;57524;48.312;7.938;2022-07-12T09:30:15;99973.34;;;23.86;45.22
70158;BME280;57524;48.312;7.938;2022-07-12T09:32:55;99976.13;;;23.84;45.14
70158;BME280;57524;48.312;7.938;2022-07-12T09:35:40;99980.25;;;23.90;45.70
70158;BME280;57524;48.312;7.938;2022-07-12T09:38:25;99990.09;;;24.04;45.38
70158;BME280;57524;48.312;7.938;2022-07-12T09:40:52;99984.16;;;24.12;44.59
70158;BME280;57524;48.312;7.938;2022-07-12T09:43:20;99981.81;;;24.20;44.42
70158;BME280;57524;48.312;7.938;2022-07-12T09:45:48;99990.66;;;24.22;44.70
70158;BME280;57524;48.312;7.938;2022-07-12T09:48:16;99993.22;;;24.23;45.22
70158;BME280;57524;48.312;7.938;2022-07-12T09:50:48;99987.22;;;24.20;44.34
70158;BME280;57524;48.312;7.938;2022-07-12T09:53:20;99993.03;;;24.26;44.26
70158;BME280;57524;48.312;7.938;2022-07-12T09:55:50;99988.28;;;24.30;45.03
70158;BME280;57524;48.312;7.938;2022-07-12T09:58:25;99980.53;;;24.38;44.50
70158;BME280;57524;48.312;7.938;2022-07-12T10:00:53;99975.25;;;24.37;44.53
70158;BME280;57524;48.312;7.938;2022-07-12T10:03:22;99975.47;;;24.46;44.43
70158;BME280;57524;48.312;7.938;2022-07-12T10:05:51;99981.19;;;24.55;43.71
70158;BME280;57524;48.312;7.938;2022-07-12T10:08:19;99972.69;;;24.61;43.81
70158;BME280;57524;48.312;7.938;2022-07-12T10:10:47;99974.19;;;24.65;43.10
70158;BME280;57524;48.312;7.938;2022-07-12T10:13:15;99980.13;;;24.70;43.43
70158;BME280;57524;48.312;7.938;2022-07-12T10:15:42;99977.41;;;24.70;43.22
70158;BME280;57524;48.312;7.938;2022-07-12T10:18:16;99967.50;;;24.71;43.21
70158;BME280;57524;48.312;7.938;2022-07-12T10:20:45;99972.78;;;24.72;42.98
70158;BME280;57524;48.312;7.938;2022-07-12T10:23:29;99972.34;;;24.65;42.90
70158;BME280;57524;48.312;7.938;2022-07-12T10:25:59;99973.69;;;24.60;43.27
70158;BME280;57524;48.312;7.938;2022-07-12T10:28:58;99971.72;;;24.62;43.11
70158;BME280;57524;48.312;7.938;2022-07-12T10:31:28;99969.13;;;24.73;43.71
70158;BME280;57524;48.312;7.938;2022-07-12T10:34:13;99966.72;;;24.81;42.13
70158;BME280;57524;48.312;7.938;2022-07-12T10:37:08;99951.41;;;24.82;42.89
70158;BME280;57524;48.312;7.938;2022-07-12T10:39:38;99963.59;;;24.87;42.23
70158;BME280;57524;48.312;7.938;2022-07-12T10:42:16;99964.13;;;24.93;41.86
70158;BME280;57524;48.312;7.938;2022-07-12T10:44:45;99961.31;;;24.94;41.06
70158;BME280;57524;48.312;7.938;2022-07-12T10:47:13;99951.56;;;25.04;42.59
70158;BME280;57524;48.312;7.938;2022-07-12T10:49:49;99944.63;;;25.13;41.75
70158;BME280;57524;48.312;7.938;2022-07-12T10:52:24;99944.22;;;25.19;43.33
70158;BME280;57524;48.312;7.938;2022-07-12T10:55:17;99940.31;;;25.23;41.04
70158;BME280;57524;48.312;7.938;2022-07-12T10:57:46;99941.38;;;25.34;41.37
70158;BME280;57524;48.312;7.938;2022-07-12T11:00:16;99940.72;;;25.30;40.61
70158;BME280;57524;48.312;7.938;2022-07-12T11:02:43;99936.44;;;25.27;40.99
70158;BME280;57524;48.312;7.938;2022-07-12T11:05:10;99936.19;;;25.30;41.77
70158;BME280;57524;48.312;7.938;2022-07-12T11:07:38;99940.69;;;25.43;41.82
70158;BME280;57524;48.312;7.938;2022-07-12T11:10:05;99945.38;;;25.52;40.37
70158;BME280;57524;48.312;7.938;2022-07-12T11:12:32;99950.09;;;25.61;41.14
70158;BME280;57524;48.312;7.938;2022-07-12T11:15:00;99941.00;;;25.62;40.88
70158;BME280;57524;48.312;7.938;2022-07-12T11:17:27;99943.13;;;25.70;41.22
70158;BME280;57524;48.312;7.938;2022-07-12T11:20:07;99946.22;;;25.77;41.28
70158;BME280;57524;48.312;7.938;2022-07-12T11:22:37;99940.47;;;25.81;41.09
70158;BME280;57524;48.312;7.938;2022-07-12T11:25:06;99934.28;;;25.92;40.03
70158;BME280;57524;48.312;7.938;2022-07-12T11:27:34;99936.50;;;25.98;40.45
70158;BME280;57524;48.312;7.938;2022-07-12T11:30:01;99928.19;;;26.12;40.24
70158;BME280;57524;48.312;7.938;2022-07-12T11:32:36;99939.75;;;26.26;39.81
70158;BME280;57524;48.312;7.938;2022-07-12T11:35:04;99928.69;;;26.29;39.60
70158;BME280;57524;48.312;7.938;2022-07-12T11:37:30;99935.47;;;26.34;40.32
70158;BME280;57524;48.312;7.938;2022-07-12T11:39:58;99931.66;;;26.37;40.25
70158;BME280;57524;48.312;7.938;2022-07-12T11:42:25;99930.94;;;26.46;39.53
70158;BME280;57524;48.312;7.938;2022-07-12T11:44:52;99930.94;;;26.46;39.28
70158;BME280;57524;48.312;7.938;2022-07-12T11:47:20;99935.13;;;26.50;39.55
70158;BME280;57524;48.312;7.938;2022-07-12T11:49:50;99940.19;;;26.55;39.31
70158;BME280;57524;48.312;7.938;2022-07-12T11:52:18;99929.97;;;26.59;38.39
70158;BME280;57524;48.312;7.938;2022-07-12T11:54:46;99928.97;;;26.48;38.56
70158;BME280;57524;48.312;7.938;2022-07-12T11:57:14;99934.59;;;26.45;38.46
70158;BME280;57524;48.312;7.938;2022-07-12T11:59:41;99936.09;;;26.49;38.97
70158;BME280;57524;48.312;7.938;2022-07-12T12:02:10;99922.84;;;26.58;38.80
70158;BME280;57524;48.312;7.938;2022-07-12T12:04:48;99921.00;;;26.69;38.04
70158;BME280;57524;48.312;7.938;2022-07-12T12:07:16;99924.56;;;26.81;38.84
70158;BME280;57524;48.312;7.938;2022-07-12T12:09:59;99921.59;;;26.95;38.90
70158;BME280;57524;48.312;7.938;2022-07-12T12:12:27;99923.06;;;27.00;37.56
70158;BME280;57524;48.312;7.938;2022-07-12T12:14:54;99916.69;;;26.89;37.54
70158;BME280;57524;48.312;7.938;2022-07-12T12:17:21;99925.06;;;26.75;37.26
70158;BME280;57524;48.312;7.938;2022-07-12T12:19:47;99925.28;;;26.83;37.66
70158;BME280;57524;48.312;7.938;2022-07-12T12:22:32;99925.28;;;26.94;36.86
70158;BME280;57524;48.312;7.938;2022-07-12T12:25:00;99919.63;;;26.98;37.76
70158;BME280;57524;48.312;7.938;2022-07-12T12:27:29;99913.69;;;27.04;37.35
70158;BME280;57524;48.312;7.938;2022-07-12T12:29:58;99914.69;;;27.03;37.15
70158;BME280;57524;48.312;7.938;2022-07-12T12:32:25;99909.50;;;27.11;37.64
70158;BME280;57524;48.312;7.938;2022-07-12T12:35:13;99901.59;;;27.19;36.66
70158;BME280;57524;48.312;7.938;2022-07-12T12:37:39;99897.41;;;27.26;36.51
70158;BME280;57524;48.312;7.938;2022-07-12T12:40:07;99894.94;;;27.34;36.42
70158;BME280;57524;48.312;7.938;2022-07-12T12:42:35;99892.56;;;27.41;37.16
70158;BME280;57524;48.312;7.938;2022-07-12T12:45:03;99890.81;;;27.51;36.86
70158;BME280;57524;48.312;7.938;2022-07-12T12:47:30;99883.56;;;27.73;36.25
70158;BME280;57524;48.312;7.938;2022-07-12T12:49:57;99872.56;;;27.86;36.04
70158;BME280;57524;48.312;7.938;2022-07-12T12:52:26;99884.69;;;27.91;35.97
70158;BME280;57524;48.312;7.938;2022-07-12T12:54:54;99881.78;;;28.04;36.21
70158;BME280;57524;48.312;7.938;2022-07-12T12:57:20;99895.56;;;28.12;35.52
70158;BME280;57524;48.312;7.938;2022-07-12T12:59:51;99889.03;;;28.25;35.48
70158;BME280;57524;48.312;7.938;2022-07-12T13:02:17;99897.91;;;28.27;35.31
70158;BME280;57524;48.312;7.938;2022-07-12T13:04:45;99897.09;;;28.36;34.60
70158;BME280;57524;48.312;7.938;2022-07-12T13:07:12;99897.75;;;28.49;34.79